sensor_id;sensor_type;location;lat;lon;timestamp;P1;durP1;ratioP1;P2;durP2;ratioP2
51686;SDS011;37774;52.192;4.584;2023-10-09T00:02:23;45.65;;;16.70;;
51686;SDS011;37774;52.192;4.584;2023-10-09T00:05:09;46.00;;;17.02;;
51686;SDS011;37774;52.192;4.584;2023-10-09T00:08:03;41.72;;;15.30;;
51686;SDS011;37774;52.192;4.584;2023-10-09T00:10:50;47.45;;;16.70;;
51686;SDS011;37774;52.192;4.584;2023-10-09T00:13:38;44.38;;;16.05;;
51686;SDS011;37774;52.192;4.584;2023-10-09T00:16:34;37.47;;;16.60;;
51686;SDS011;37774;52.192;4.584;2023-10-09T00:19:21;46.17;;;16.90;;
51686;SDS011;37774;52.192;4.584;2023-10-09T00:22:14;37.08;;;14.90;;
51686;SDS011;37774;52.192;4.584;2023-10-09T00:25:12;41.33;;;16.15;;
51686;SDS011;37774;52.192;4.584;2023-10-09T00:28:05;40.17;;;13.95;;
51686;SDS011;37774;52.192;4.584;2023-10-09T00:30:53;34.15;;;12.43;;
51686;SDS011;37774;52.192;4.584;2023-10-09T00:33:40;27.23;;;11.20;;
51686;SDS011;37774;52.192;4.584;2023-10-09T00:36:26;31.23;;;11.75;;
51686;SDS011;37774;52.192;4.584;2023-10-09T00:39:13;27.17;;;9.95;;
51686;SDS011;37774;52.192;4.584;2023-10-09T00:42:18;21.00;;;9.77;;
51686;SDS011;37774;52.192;4.584;2023-10-09T00:45:11;23.65;;;9.75;;
51686;SDS011;37774;52.192;4.584;2023-10-09T00:48:00;33.33;;;10.60;;
51686;SDS011;37774;52.192;4.584;2023-10-09T00:50:49;30.85;;;9.02;;
51686;SDS011;37774;52.192;4.584;2023-10-09T00:53:37;47.95;;;10.15;;
51686;SDS011;37774;52.192;4.584;2023-10-09T00:56:23;26.25;;;9.05;;
51686;SDS011;37774;52.192;4.584;2023-10-09T00:59:22;21.65;;;7.97;;
51686;SDS011;37774;52.192;4.584;2023-10-09T01:02:10;27.73;;;8.20;;
51686;SDS011;37774;52.192;4.584;2023-10-09T01:04:55;20.77;;;8.90;;
51686;SDS011;37774;52.192;4.584;2023-10-09T01:07:42;19.45;;;7.97;;
51686;SDS011;37774;52.192;4.584;2023-10-09T01:13:19;22.20;;;6.55;;
51686;SDS011;37774;52.192;4.584;2023-10-09T01:16:10;17.38;;;8.32;;
51686;SDS011;37774;52.192;4.584;2023-10-09T01:19:00;18.02;;;6.60;;
51686;SDS011;37774;52.192;4.584;2023-10-09T01:21:50;14.38;;;6.80;;
51686;SDS011;37774;52.192;4.584;2023-10-09T01:24:36;15.05;;;6.35;;
51686;SDS011;37774;52.192;4.584;2023-10-09T01:27:23;27.60;;;7.00;;
51686;SDS011;37774;52.192;4.584;2023-10-09T01:30:16;24.65;;;7.70;;
51686;SDS011;37774;52.192;4.584;2023-10-09T01:33:01;22.50;;;6.60;;
51686;SDS011;37774;52.192;4.584;2023-10-09T01:35:55;22.48;;;6.03;;
51686;SDS011;37774;52.192;4.584;2023-10-09T01:38:42;12.47;;;6.13;;
51686;SDS011;37774;52.192;4.584;2023-10-09T01:41:30;12.23;;;5.23;;
51686;SDS011;37774;52.192;4.584;2023-10-09T01:44:18;22.33;;;6.03;;
51686;SDS011;37774;52.192;4.584;2023-10-09T01:47:03;11.70;;;5.55;;
51686;SDS011;37774;52.192;4.584;2023-10-09T01:49:51;18.80;;;6.05;;
51686;SDS011;37774;52.192;4.584;2023-10-09T01:52:37;21.10;;;6.05;;
51686;SDS011;37774;52.192;4.584;2023-10-09T01:55:23;13.63;;;6.50;;
51686;SDS011;37774;52.192;4.584;2023-10-09T01:58:19;16.52;;;5.35;;
51686;SDS011;37774;52.192;4.584;2023-10-09T02:01:08;21.02;;;5.68;;
51686;SDS011;37774;52.192;4.584;2023-10-09T02:03:53;14.00;;;5.55;;
51686;SDS011;37774;52.192;4.584;2023-10-09T02:06:45;20.60;;;6.38;;
51686;SDS011;37774;52.192;4.584;2023-10-09T02:09:35;19.25;;;5.95;;
51686;SDS011;37774;52.192;4.584;2023-10-09T02:12:28;18.30;;;5.82;;
51686;SDS011;37774;52.192;4.584;2023-10-09T02:15:19;19.20;;;5.47;;
51686;SDS011;37774;52.192;4.584;2023-10-09T02:18:24;18.70;;;5.75;;
51686;SDS011;37774;52.192;4.584;2023-10-09T02:21:36;17.15;;;5.10;;
51686;SDS011;37774;52.192;4.584;2023-10-09T02:24:25;13.90;;;5.55;;
51686;SDS011;37774;52.192;4.584;2023-10-09T02:27:33;24.48;;;6.63;;
51686;SDS011;37774;52.192;4.584;2023-10-09T02:30:36;18.90;;;5.82;;
51686;SDS011;37774;52.192;4.584;2023-10-09T02:33:25;20.17;;;6.82;;
51686;SDS011;37774;52.192;4.584;2023-10-09T02:38:58;17.95;;;5.75;;
51686;SDS011;37774;52.192;4.584;2023-10-09T02:41:43;11.90;;;5.00;;
51686;SDS011;37774;52.192;4.584;2023-10-09T02:44:33;22.33;;;6.47;;
51686;SDS011;37774;52.192;4.584;2023-10-09T02:47:25;16.92;;;5.70;;
51686;SDS011;37774;52.192;4.584;2023-10-09T02:50:13;13.07;;;5.22;;
51686;SDS011;37774;52.192;4.584;2023-10-09T02:53:05;14.55;;;5.93;;
51686;SDS011;37774;52.192;4.584;2023-10-09T02:55:53;13.45;;;4.95;;
51686;SDS011;37774;52.192;4.584;2023-10-09T02:58:55;18.55;;;5.45;;
51686;SDS011;37774;52.192;4.584;2023-10-09T03:01:52;11.68;;;5.53;;
51686;SDS011;37774;52.192;4.584;2023-10-09T03:04:39;21.75;;;6.63;;
51686;SDS011;37774;52.192;4.584;2023-10-09T03:07:25;16.67;;;6.25;;
51686;SDS011;37774;52.192;4.584;2023-10-09T03:10:10;16.73;;;5.55;;
51686;SDS011;37774;52.192;4.584;2023-10-09T03:12:56;19.92;;;5.90;;
51686;SDS011;37774;52.192;4.584;2023-10-09T03:15:43;13.43;;;5.63;;
51686;SDS011;37774;52.192;4.584;2023-10-09T03:18:29;12.70;;;4.95;;
51686;SDS011;37774;52.192;4.584;2023-10-09T03:21:16;24.13;;;6.15;;
51686;SDS011;37774;52.192;4.584;2023-10-09T03:24:02;17.42;;;5.72;;
51686;SDS011;37774;52.192;4.584;2023-10-09T03:26:48;21.15;;;6.40;;
51686;SDS011;37774;52.192;4.584;2023-10-09T03:29:33;15.93;;;5.93;;
51686;SDS011;37774;52.192;4.584;2023-10-09T03:32:19;16.52;;;5.63;;
51686;SDS011;37774;52.192;4.584;2023-10-09T03:35:05;17.45;;;4.53;;
51686;SDS011;37774;52.192;4.584;2023-10-09T03:37:53;16.90;;;4.93;;
51686;SDS011;37774;52.192;4.584;2023-10-09T03:40:43;17.50;;;5.25;;
51686;SDS011;37774;52.192;4.584;2023-10-09T03:43:32;15.82;;;4.90;;
51686;SDS011;37774;52.192;4.584;2023-10-09T03:46:21;17.55;;;5.70;;
51686;SDS011;37774;52.192;4.584;2023-10-09T03:49:10;16.50;;;5.95;;
51686;SDS011;37774;52.192;4.584;2023-10-09T03:51:57;22.55;;;6.38;;
51686;SDS011;37774;52.192;4.584;2023-10-09T03:54:44;14.70;;;5.43;;
51686;SDS011;37774;52.192;4.584;2023-10-09T03:57:31;19.63;;;5.57;;
51686;SDS011;37774;52.192;4.584;2023-10-09T04:00:16;15.35;;;5.43;;
51686;SDS011;37774;52.192;4.584;2023-10-09T04:03:12;18.67;;;5.45;;
51686;SDS011;37774;52.192;4.584;2023-10-09T04:05:57;13.32;;;4.90;;
51686;SDS011;37774;52.192;4.584;2023-10-09T04:08:44;11.40;;;5.43;;
51686;SDS011;37774;52.192;4.584;2023-10-09T04:11:36;21.77;;;6.07;;
51686;SDS011;37774;52.192;4.584;2023-10-09T04:14:26;17.17;;;5.53;;
51686;SDS011;37774;52.192;4.584;2023-10-09T04:17:17;21.23;;;6.15;;
51686;SDS011;37774;52.192;4.584;2023-10-09T04:20:17;15.65;;;5.28;;
51686;SDS011;37774;52.192;4.584;2023-10-09T04:23:31;20.95;;;5.75;;
51686;SDS011;37774;52.192;4.584;2023-10-09T04:26:20;17.88;;;5.53;;
51686;SDS011;37774;52.192;4.584;2023-10-09T04:29:06;20.17;;;5.55;;
51686;SDS011;37774;52.192;4.584;2023-10-09T04:31:54;21.67;;;5.93;;
51686;SDS011;37774;52.192;4.584;2023-10-09T04:34:40;17.98;;;5.45;;
51686;SDS011;37774;52.192;4.584;2023-10-09T04:37:32;10.15;;;5.03;;
51686;SDS011;37774;52.192;4.584;2023-10-09T04:40:21;11.02;;;5.00;;
51686;SDS011;37774;52.192;4.584;2023-10-09T04:43:20;19.33;;;5.03;;
51686;SDS011;37774;52.192;4.584;2023-10-09T04:46:07;18.70;;;5.75;;
51686;SDS011;37774;52.192;4.584;2023-10-09T04:48:55;13.80;;;4.63;;
51686;SDS011;37774;52.192;4.584;2023-10-09T04:51:59;24.02;;;5.75;;
51686;SDS011;37774;52.192;4.584;2023-10-09T04:54:48;17.08;;;4.80;;
51686;SDS011;37774;52.192;4.584;2023-10-09T04:57:58;13.32;;;4.57;;
51686;SDS011;37774;52.192;4.584;2023-10-09T05:00:53;15.15;;;4.88;;
51686;SDS011;37774;52.192;4.584;2023-10-09T05:03:57;20.95;;;5.47;;
51686;SDS011;37774;52.192;4.584;2023-10-09T05:06:46;22.58;;;5.85;;
51686;SDS011;37774;52.192;4.584;2023-10-09T05:09:39;14.65;;;5.22;;
51686;SDS011;37774;52.192;4.584;2023-10-09T05:12:39;13.25;;;5.38;;
51686;SDS011;37774;52.192;4.584;2023-10-09T05:15:30;13.18;;;5.45;;
51686;SDS011;37774;52.192;4.584;2023-10-09T05:18:18;25.80;;;5.78;;
51686;SDS011;37774;52.192;4.584;2023-10-09T05:21:12;20.20;;;5.45;;
51686;SDS011;37774;52.192;4.584;2023-10-09T05:24:17;22.92;;;5.35;;
51686;SDS011;37774;52.192;4.584;2023-10-09T05:27:02;18.90;;;5.13;;
51686;SDS011;37774;52.192;4.584;2023-10-09T05:30:01;16.58;;;4.80;;
51686;SDS011;37774;52.192;4.584;2023-10-09T05:32:56;16.30;;;4.32;;
51686;SDS011;37774;52.192;4.584;2023-10-09T05:36:05;13.98;;;4.65;;
51686;SDS011;37774;52.192;4.584;2023-10-09T05:39:16;23.17;;;5.45;;
51686;SDS011;37774;52.192;4.584;2023-10-09T05:42:05;13.13;;;4.63;;
51686;SDS011;37774;52.192;4.584;2023-10-09T05:44:53;14.32;;;5.47;;
51686;SDS011;37774;52.192;4.584;2023-10-09T05:48:05;9.27;;;4.53;;
51686;SDS011;37774;52.192;4.584;2023-10-09T05:51:09;14.77;;;5.35;;
51686;SDS011;37774;52.192;4.584;2023-10-09T05:53:56;21.37;;;5.43;;
51686;SDS011;37774;52.192;4.584;2023-10-09T05:57:08;12.25;;;5.70;;
51686;SDS011;37774;52.192;4.584;2023-10-09T06:00:19;15.13;;;5.38;;
51686;SDS011;37774;52.192;4.584;2023-10-09T06:03:23;15.55;;;4.70;;
51686;SDS011;37774;52.192;4.584;2023-10-09T06:06:09;13.05;;;5.45;;
51686;SDS011;37774;52.192;4.584;2023-10-09T06:09:02;13.85;;;5.43;;
51686;SDS011;37774;52.192;4.584;2023-10-09T06:12:05;18.35;;;5.50;;
51686;SDS011;37774;52.192;4.584;2023-10-09T06:15:10;17.88;;;5.25;;
51686;SDS011;37774;52.192;4.584;2023-10-09T06:18:16;11.18;;;4.95;;
51686;SDS011;37774;52.192;4.584;2023-10-09T06:21:10;21.20;;;5.30;;
51686;SDS011;37774;52.192;4.584;2023-10-09T06:24:23;23.58;;;6.03;;
51686;SDS011;37774;52.192;4.584;2023-10-09T06:27:09;20.63;;;5.07;;
51686;SDS011;37774;52.192;4.584;2023-10-09T06:30:10;15.68;;;5.28;;
51686;SDS011;37774;52.192;4.584;2023-10-09T06:33:08;22.08;;;5.72;;
51686;SDS011;37774;52.192;4.584;2023-10-09T06:36:12;11.32;;;4.45;;
51686;SDS011;37774;52.192;4.584;2023-10-09T06:39:01;14.43;;;4.53;;
51686;SDS011;37774;52.192;4.584;2023-10-09T06:42:00;12.38;;;4.93;;
51686;SDS011;37774;52.192;4.584;2023-10-09T06:45:14;14.63;;;5.35;;
51686;SDS011;37774;52.192;4.584;2023-10-09T06:47:59;14.95;;;4.35;;
51686;SDS011;37774;52.192;4.584;2023-10-09T06:50:53;21.05;;;5.22;;
51686;SDS011;37774;52.192;4.584;2023-10-09T06:53:48;20.95;;;5.25;;
51686;SDS011;37774;52.192;4.584;2023-10-09T06:56:49;16.27;;;4.85;;
51686;SDS011;37774;52.192;4.584;2023-10-09T06:59:52;16.10;;;5.68;;
51686;SDS011;37774;52.192;4.584;2023-10-09T07:02:56;14.52;;;4.75;;
51686;SDS011;37774;52.192;4.584;2023-10-09T07:05:42;21.35;;;5.78;;
51686;SDS011;37774;52.192;4.584;2023-10-09T07:08:48;19.58;;;4.88;;
51686;SDS011;37774;52.192;4.584;2023-10-09T07:11:53;10.35;;;5.78;;
51686;SDS011;37774;52.192;4.584;2023-10-09T07:14:47;20.08;;;5.68;;
51686;SDS011;37774;52.192;4.584;2023-10-09T07:18:08;18.38;;;5.47;;
51686;SDS011;37774;52.192;4.584;2023-10-09T07:21:31;16.70;;;4.82;;
51686;SDS011;37774;52.192;4.584;2023-10-09T07:24:19;19.55;;;5.00;;
51686;SDS011;37774;52.192;4.584;2023-10-09T07:27:08;20.05;;;5.68;;
51686;SDS011;37774;52.192;4.584;2023-10-09T07:29:57;16.08;;;5.25;;
51686;SDS011;37774;52.192;4.584;2023-10-09T07:32:43;23.95;;;5.70;;
51686;SDS011;37774;52.192;4.584;2023-10-09T07:35:33;15.82;;;5.25;;
51686;SDS011;37774;52.192;4.584;2023-10-09T07:38:30;20.05;;;6.07;;
51686;SDS011;37774;52.192;4.584;2023-10-09T07:41:19;19.17;;;6.18;;
51686;SDS011;37774;52.192;4.584;2023-10-09T07:44:21;21.52;;;5.90;;
51686;SDS011;37774;52.192;4.584;2023-10-09T07:47:20;18.00;;;5.60;;
51686;SDS011;37774;52.192;4.584;2023-10-09T07:50:26;15.60;;;4.97;;
51686;SDS011;37774;52.192;4.584;2023-10-09T07:53:23;13.88;;;4.32;;
51686;SDS011;37774;52.192;4.584;2023-10-09T07:56:11;15.32;;;4.32;;
51686;SDS011;37774;52.192;4.584;2023-10-09T07:58:57;11.10;;;4.97;;
51686;SDS011;37774;52.192;4.584;2023-10-09T08:01:44;18.60;;;4.87;;
51686;SDS011;37774;52.192;4.584;2023-10-09T08:04:37;14.15;;;4.47;;
51686;SDS011;37774;52.192;4.584;2023-10-09T08:07:23;13.30;;;4.40;;
51686;SDS011;37774;52.192;4.584;2023-10-09T08:10:11;13.27;;;4.45;;
51686;SDS011;37774;52.192;4.584;2023-10-09T08:13:14;15.95;;;4.90;;
51686;SDS011;37774;52.192;4.584;2023-10-09T08:16:19;9.93;;;4.38;;
51686;SDS011;37774;52.192;4.584;2023-10-09T08:19:05;12.30;;;4.45;;
51686;SDS011;37774;52.192;4.584;2023-10-09T08:22:17;13.85;;;4.80;;
51686;SDS011;37774;52.192;4.584;2023-10-09T08:25:23;12.30;;;4.68;;
51686;SDS011;37774;52.192;4.584;2023-10-09T08:28:11;8.40;;;3.90;;
51686;SDS011;37774;52.192;4.584;2023-10-09T08:31:23;12.77;;;4.03;;
51686;SDS011;37774;52.192;4.584;2023-10-09T08:34:28;14.13;;;4.55;;
51686;SDS011;37774;52.192;4.584;2023-10-09T08:37:19;8.68;;;3.53;;
51686;SDS011;37774;52.192;4.584;2023-10-09T08:40:09;11.85;;;4.60;;
51686;SDS011;37774;52.192;4.584;2023-10-09T08:43:04;9.43;;;4.03;;
51686;SDS011;37774;52.192;4.584;2023-10-09T08:45:54;15.32;;;4.63;;
51686;SDS011;37774;52.192;4.584;2023-10-09T08:48:44;13.27;;;3.95;;
51686;SDS011;37774;52.192;4.584;2023-10-09T08:51:29;12.23;;;4.38;;
51686;SDS011;37774;52.192;4.584;2023-10-09T08:54:19;13.38;;;4.32;;
51686;SDS011;37774;52.192;4.584;2023-10-09T08:57:04;8.55;;;3.83;;
51686;SDS011;37774;52.192;4.584;2023-10-09T08:59:55;12.75;;;4.35;;
51686;SDS011;37774;52.192;4.584;2023-10-09T09:02:40;10.77;;;4.38;;
51686;SDS011;37774;52.192;4.584;2023-10-09T09:05:28;12.30;;;4.15;;
51686;SDS011;37774;52.192;4.584;2023-10-09T09:08:22;15.43;;;4.05;;
51686;SDS011;37774;52.192;4.584;2023-10-09T09:11:10;14.27;;;4.30;;
51686;SDS011;37774;52.192;4.584;2023-10-09T09:14:00;7.50;;;3.20;;
51686;SDS011;37774;52.192;4.584;2023-10-09T09:16:49;8.45;;;3.95;;
51686;SDS011;37774;52.192;4.584;2023-10-09T09:19:36;12.40;;;4.40;;
51686;SDS011;37774;52.192;4.584;2023-10-09T09:22:21;12.85;;;4.07;;
51686;SDS011;37774;52.192;4.584;2023-10-09T09:25:07;10.27;;;3.85;;
51686;SDS011;37774;52.192;4.584;2023-10-09T09:27:53;10.80;;;4.10;;
51686;SDS011;37774;52.192;4.584;2023-10-09T09:30:49;9.00;;;3.85;;
51686;SDS011;37774;52.192;4.584;2023-10-09T09:33:36;11.07;;;3.75;;
51686;SDS011;37774;52.192;4.584;2023-10-09T09:36:23;9.80;;;4.20;;
51686;SDS011;37774;52.192;4.584;2023-10-09T09:39:10;18.10;;;4.85;;
51686;SDS011;37774;52.192;4.584;2023-10-09T09:42:03;9.63;;;4.20;;
51686;SDS011;37774;52.192;4.584;2023-10-09T09:44:51;11.85;;;4.28;;
51686;SDS011;37774;52.192;4.584;2023-10-09T09:47:36;12.68;;;4.55;;
51686;SDS011;37774;52.192;4.584;2023-10-09T09:50:23;9.38;;;3.88;;
51686;SDS011;37774;52.192;4.584;2023-10-09T09:53:10;19.33;;;5.03;;
51686;SDS011;37774;52.192;4.584;2023-10-09T09:56:00;15.80;;;4.53;;
51686;SDS011;37774;52.192;4.584;2023-10-09T09:58:46;10.93;;;4.47;;
51686;SDS011;37774;52.192;4.584;2023-10-09T10:01:37;13.50;;;4.70;;
51686;SDS011;37774;52.192;4.584;2023-10-09T10:04:25;8.55;;;3.63;;
51686;SDS011;37774;52.192;4.584;2023-10-09T10:07:20;10.70;;;3.90;;
51686;SDS011;37774;52.192;4.584;2023-10-09T10:16:59;15.80;;;4.15;;
51686;SDS011;37774;52.192;4.584;2023-10-09T10:20:06;13.55;;;4.18;;
51686;SDS011;37774;52.192;4.584;2023-10-09T10:23:18;13.90;;;4.93;;
51686;SDS011;37774;52.192;4.584;2023-10-09T10:26:15;9.40;;;3.78;;
51686;SDS011;37774;52.192;4.584;2023-10-09T10:29:14;17.40;;;4.45;;
51686;SDS011;37774;52.192;4.584;2023-10-09T10:32:07;11.77;;;3.72;;
51686;SDS011;37774;52.192;4.584;2023-10-09T10:34:52;18.08;;;4.60;;
51686;SDS011;37774;52.192;4.584;2023-10-09T10:37:41;21.08;;;4.32;;
51686;SDS011;37774;52.192;4.584;2023-10-09T10:40:35;12.85;;;4.07;;
51686;SDS011;37774;52.192;4.584;2023-10-09T10:43:24;14.57;;;3.97;;
51686;SDS011;37774;52.192;4.584;2023-10-09T10:46:31;9.25;;;3.80;;
51686;SDS011;37774;52.192;4.584;2023-10-09T10:49:21;14.75;;;4.47;;
51686;SDS011;37774;52.192;4.584;2023-10-09T10:52:07;18.08;;;4.45;;
51686;SDS011;37774;52.192;4.584;2023-10-09T10:55:09;14.98;;;4.05;;
51686;SDS011;37774;52.192;4.584;2023-10-09T10:58:25;24.63;;;4.93;;
51686;SDS011;37774;52.192;4.584;2023-10-09T11:01:19;10.93;;;4.57;;
51686;SDS011;37774;52.192;4.584;2023-10-09T11:04:10;11.35;;;4.03;;
51686;SDS011;37774;52.192;4.584;2023-10-09T11:06:56;20.85;;;4.35;;
51686;SDS011;37774;52.192;4.584;2023-10-09T11:09:50;15.43;;;4.47;;
51686;SDS011;37774;52.192;4.584;2023-10-09T11:12:51;14.05;;;4.32;;
51686;SDS011;37774;52.192;4.584;2023-10-09T11:16:06;10.30;;;3.45;;
51686;SDS011;37774;52.192;4.584;2023-10-09T11:19:13;9.90;;;3.78;;
51686;SDS011;37774;52.192;4.584;2023-10-09T11:22:12;11.68;;;4.07;;
51686;SDS011;37774;52.192;4.584;2023-10-09T11:25:14;7.43;;;3.20;;
51686;SDS011;37774;52.192;4.584;2023-10-09T11:28:02;13.15;;;4.15;;
51686;SDS011;37774;52.192;4.584;2023-10-09T11:31:10;8.05;;;3.30;;
51686;SDS011;37774;52.192;4.584;2023-10-09T11:33:55;9.82;;;3.38;;
51686;SDS011;37774;52.192;4.584;2023-10-09T11:36:40;8.70;;;4.30;;
51686;SDS011;37774;52.192;4.584;2023-10-09T11:39:34;11.32;;;3.58;;
51686;SDS011;37774;52.192;4.584;2023-10-09T11:42:18;12.27;;;4.28;;
51686;SDS011;37774;52.192;4.584;2023-10-09T11:45:20;18.98;;;3.97;;
51686;SDS011;37774;52.192;4.584;2023-10-09T11:48:17;11.43;;;4.30;;
51686;SDS011;37774;52.192;4.584;2023-10-09T11:51:12;15.80;;;3.83;;
51686;SDS011;37774;52.192;4.584;2023-10-09T11:54:02;9.02;;;3.47;;
51686;SDS011;37774;52.192;4.584;2023-10-09T11:56:52;18.42;;;4.18;;
51686;SDS011;37774;52.192;4.584;2023-10-09T11:59:39;10.10;;;4.32;;
51686;SDS011;37774;52.192;4.584;2023-10-09T12:02:25;11.88;;;4.78;;
51686;SDS011;37774;52.192;4.584;2023-10-09T12:05:12;12.82;;;4.13;;
51686;SDS011;37774;52.192;4.584;2023-10-09T12:08:01;13.35;;;4.07;;
51686;SDS011;37774;52.192;4.584;2023-10-09T12:10:52;12.90;;;3.80;;
51686;SDS011;37774;52.192;4.584;2023-10-09T12:13:39;13.95;;;4.13;;
51686;SDS011;37774;52.192;4.584;2023-10-09T12:16:26;16.20;;;5.35;;
51686;SDS011;37774;52.192;4.584;2023-10-09T12:19:13;16.77;;;4.55;;
51686;SDS011;37774;52.192;4.584;2023-10-09T12:22:00;14.02;;;4.07;;
51686;SDS011;37774;52.192;4.584;2023-10-09T12:24:47;13.10;;;4.03;;
51686;SDS011;37774;52.192;4.584;2023-10-09T12:27:33;9.70;;;3.67;;
51686;SDS011;37774;52.192;4.584;2023-10-09T12:30:19;10.85;;;4.28;;
51686;SDS011;37774;52.192;4.584;2023-10-09T12:33:10;8.73;;;3.55;;
51686;SDS011;37774;52.192;4.584;2023-10-09T12:35:59;17.05;;;4.60;;
51686;SDS011;37774;52.192;4.584;2023-10-09T12:38:46;21.38;;;5.30;;
51686;SDS011;37774;52.192;4.584;2023-10-09T12:41:35;11.32;;;4.25;;
51686;SDS011;37774;52.192;4.584;2023-10-09T12:44:25;9.02;;;3.92;;
51686;SDS011;37774;52.192;4.584;2023-10-09T12:47:10;12.60;;;4.00;;
51686;SDS011;37774;52.192;4.584;2023-10-09T12:49:56;21.25;;;5.03;;
51686;SDS011;37774;52.192;4.584;2023-10-09T12:52:41;11.48;;;3.70;;
51686;SDS011;37774;52.192;4.584;2023-10-09T12:55:28;16.40;;;4.60;;
51686;SDS011;37774;52.192;4.584;2023-10-09T12:58:16;12.32;;;3.83;;
51686;SDS011;37774;52.192;4.584;2023-10-09T13:01:02;12.95;;;4.50;;
51686;SDS011;37774;52.192;4.584;2023-10-09T13:03:53;10.18;;;4.60;;
51686;SDS011;37774;52.192;4.584;2023-10-09T13:06:38;11.35;;;4.25;;
51686;SDS011;37774;52.192;4.584;2023-10-09T13:09:27;16.55;;;4.55;;
51686;SDS011;37774;52.192;4.584;2023-10-09T13:12:20;16.17;;;4.18;;
51686;SDS011;37774;52.192;4.584;2023-10-09T13:15:07;16.92;;;5.05;;
51686;SDS011;37774;52.192;4.584;2023-10-09T13:17:53;10.23;;;4.30;;
51686;SDS011;37774;52.192;4.584;2023-10-09T13:20:39;13.38;;;5.65;;
51686;SDS011;37774;52.192;4.584;2023-10-09T13:23:24;11.73;;;4.22;;
51686;SDS011;37774;52.192;4.584;2023-10-09T13:26:18;14.07;;;4.82;;
51686;SDS011;37774;52.192;4.584;2023-10-09T13:29:08;16.27;;;4.22;;
51686;SDS011;37774;52.192;4.584;2023-10-09T13:31:55;10.20;;;3.85;;
51686;SDS011;37774;52.192;4.584;2023-10-09T13:34:46;21.40;;;5.55;;
51686;SDS011;37774;52.192;4.584;2023-10-09T13:37:33;11.70;;;4.80;;
51686;SDS011;37774;52.192;4.584;2023-10-09T13:43:11;10.38;;;4.30;;
51686;SDS011;37774;52.192;4.584;2023-10-09T13:46:01;12.93;;;4.72;;
51686;SDS011;37774;52.192;4.584;2023-10-09T13:51:33;15.20;;;4.20;;
51686;SDS011;37774;52.192;4.584;2023-10-09T13:54:18;16.35;;;5.65;;
51686;SDS011;37774;52.192;4.584;2023-10-09T13:57:12;15.00;;;5.25;;
51686;SDS011;37774;52.192;4.584;2023-10-09T13:59:58;21.13;;;5.50;;
51686;SDS011;37774;52.192;4.584;2023-10-09T14:02:45;19.42;;;5.78;;
51686;SDS011;37774;52.192;4.584;2023-10-09T14:05:30;13.00;;;4.97;;
51686;SDS011;37774;52.192;4.584;2023-10-09T14:08:19;12.38;;;4.75;;
51686;SDS011;37774;52.192;4.584;2023-10-09T14:11:06;13.60;;;4.05;;
51686;SDS011;37774;52.192;4.584;2023-10-09T14:13:56;21.15;;;5.10;;
51686;SDS011;37774;52.192;4.584;2023-10-09T14:16:43;14.35;;;4.30;;
51686;SDS011;37774;52.192;4.584;2023-10-09T14:19:31;12.40;;;5.15;;
51686;SDS011;37774;52.192;4.584;2023-10-09T14:22:18;14.32;;;5.78;;
51686;SDS011;37774;52.192;4.584;2023-10-09T14:25:04;13.63;;;5.22;;
51686;SDS011;37774;52.192;4.584;2023-10-09T14:27:56;16.55;;;4.95;;
51686;SDS011;37774;52.192;4.584;2023-10-09T14:30:42;16.63;;;6.53;;
51686;SDS011;37774;52.192;4.584;2023-10-09T14:33:28;15.52;;;5.38;;
51686;SDS011;37774;52.192;4.584;2023-10-09T14:36:21;16.10;;;5.40;;
51686;SDS011;37774;52.192;4.584;2023-10-09T14:39:09;20.83;;;6.07;;
51686;SDS011;37774;52.192;4.584;2023-10-09T14:41:57;21.65;;;5.32;;
51686;SDS011;37774;52.192;4.584;2023-10-09T14:44:42;13.15;;;5.63;;
51686;SDS011;37774;52.192;4.584;2023-10-09T14:47:28;12.30;;;4.85;;
51686;SDS011;37774;52.192;4.584;2023-10-09T14:50:14;14.27;;;5.65;;
51686;SDS011;37774;52.192;4.584;2023-10-09T14:53:01;16.85;;;5.35;;
51686;SDS011;37774;52.192;4.584;2023-10-09T14:55:47;17.33;;;5.20;;
51686;SDS011;37774;52.192;4.584;2023-10-09T14:58:38;13.77;;;5.63;;
51686;SDS011;37774;52.192;4.584;2023-10-09T15:01:24;15.43;;;5.55;;
51686;SDS011;37774;52.192;4.584;2023-10-09T15:04:12;14.40;;;5.88;;
51686;SDS011;37774;52.192;4.584;2023-10-09T15:06:58;11.75;;;5.43;;
51686;SDS011;37774;52.192;4.584;2023-10-09T15:09:46;21.10;;;6.53;;
51686;SDS011;37774;52.192;4.584;2023-10-09T15:12:34;18.10;;;5.82;;
51686;SDS011;37774;52.192;4.584;2023-10-09T15:15:26;25.52;;;7.13;;
51686;SDS011;37774;52.192;4.584;2023-10-09T15:18:14;12.57;;;6.07;;
51686;SDS011;37774;52.192;4.584;2023-10-09T15:21:02;19.65;;;5.60;;
51686;SDS011;37774;52.192;4.584;2023-10-09T15:23:50;12.77;;;5.60;;
51686;SDS011;37774;52.192;4.584;2023-10-09T15:26:39;23.98;;;6.22;;
51686;SDS011;37774;52.192;4.584;2023-10-09T15:29:25;18.45;;;6.25;;
51686;SDS011;37774;52.192;4.584;2023-10-09T15:32:14;20.42;;;6.70;;
51686;SDS011;37774;52.192;4.584;2023-10-09T15:35:06;17.42;;;6.55;;
51686;SDS011;37774;52.192;4.584;2023-10-09T15:37:53;22.95;;;7.32;;
51686;SDS011;37774;52.192;4.584;2023-10-09T15:40:39;23.90;;;6.20;;
51686;SDS011;37774;52.192;4.584;2023-10-09T15:43:28;20.10;;;6.18;;
51686;SDS011;37774;52.192;4.584;2023-10-09T15:46:14;26.10;;;6.25;;
51686;SDS011;37774;52.192;4.584;2023-10-09T15:48:59;14.85;;;4.95;;
51686;SDS011;37774;52.192;4.584;2023-10-09T15:51:45;13.57;;;4.80;;
51686;SDS011;37774;52.192;4.584;2023-10-09T15:54:31;23.42;;;5.78;;
51686;SDS011;37774;52.192;4.584;2023-10-09T15:57:17;23.33;;;6.32;;
51686;SDS011;37774;52.192;4.584;2023-10-09T16:00:05;19.45;;;4.75;;
51686;SDS011;37774;52.192;4.584;2023-10-09T16:02:57;26.83;;;5.40;;
51686;SDS011;37774;52.192;4.584;2023-10-09T16:05:44;11.05;;;4.25;;
51686;SDS011;37774;52.192;4.584;2023-10-09T16:08:30;19.40;;;5.88;;
51686;SDS011;37774;52.192;4.584;2023-10-09T16:11:16;13.13;;;5.32;;
51686;SDS011;37774;52.192;4.584;2023-10-09T16:14:03;17.63;;;5.28;;
51686;SDS011;37774;52.192;4.584;2023-10-09T16:16:54;18.35;;;5.22;;
51686;SDS011;37774;52.192;4.584;2023-10-09T16:19:39;16.83;;;5.13;;
51686;SDS011;37774;52.192;4.584;2023-10-09T16:22:25;14.52;;;4.60;;
51686;SDS011;37774;52.192;4.584;2023-10-09T16:25:11;22.77;;;5.40;;
51686;SDS011;37774;52.192;4.584;2023-10-09T16:28:01;13.77;;;4.43;;
51686;SDS011;37774;52.192;4.584;2023-10-09T16:30:46;22.73;;;5.65;;
51686;SDS011;37774;52.192;4.584;2023-10-09T16:33:33;19.27;;;4.68;;
51686;SDS011;37774;52.192;4.584;2023-10-09T16:36:19;15.15;;;4.85;;
51686;SDS011;37774;52.192;4.584;2023-10-09T16:39:05;22.08;;;5.35;;
51686;SDS011;37774;52.192;4.584;2023-10-09T16:42:02;14.40;;;5.10;;
51686;SDS011;37774;52.192;4.584;2023-10-09T16:44:48;11.30;;;5.00;;
51686;SDS011;37774;52.192;4.584;2023-10-09T16:47:33;17.92;;;5.20;;
51686;SDS011;37774;52.192;4.584;2023-10-09T16:50:23;14.63;;;4.50;;
51686;SDS011;37774;52.192;4.584;2023-10-09T16:53:12;17.75;;;4.22;;
51686;SDS011;37774;52.192;4.584;2023-10-09T16:55:57;19.90;;;4.45;;
51686;SDS011;37774;52.192;4.584;2023-10-09T16:58:48;12.77;;;4.80;;
51686;SDS011;37774;52.192;4.584;2023-10-09T17:01:36;14.95;;;5.00;;
51686;SDS011;37774;52.192;4.584;2023-10-09T17:04:21;9.02;;;4.03;;
51686;SDS011;37774;52.192;4.584;2023-10-09T17:07:08;14.27;;;4.55;;
51686;SDS011;37774;52.192;4.584;2023-10-09T17:09:58;16.98;;;4.13;;
51686;SDS011;37774;52.192;4.584;2023-10-09T17:12:43;11.43;;;4.15;;
51686;SDS011;37774;52.192;4.584;2023-10-09T17:15:33;15.82;;;5.43;;
51686;SDS011;37774;52.192;4.584;2023-10-09T17:18:19;10.75;;;4.13;;